Terminal Aerodrome Forecast
Issued by NWS

Home | Current Version | Previous Version | Text Only | Print | Product List | Glossary On
Versions: 1 2 3 4 5 6 7 8 9 10 11 12 13 14 15 16 17 18 19 20 21 22 23 24
000
FTUS46 KLOX 200700 AAA
TAFOXR
TAF AMD
KOXR 200706Z 2007/2106 VRB03KT P6SM OVC018
     FM202000 26008KT P6SM BKN025
     FM202300 26010KT P6SM SCT025
     FM210400 VRB03KT P6SM SCT025=

USA.gov is the U.S. government's official web portal to all federal, state and local government web resources and services.